createdAt,value
2022-08-11T00:01:21.218Z,101939.50
2022-08-11T00:03:53.818Z,101942.19
2022-08-11T00:06:32.380Z,101932.22
2022-08-11T00:09:00.817Z,101935.78
2022-08-11T00:11:46.764Z,101932.38
2022-08-11T00:14:16.928Z,101928.84
2022-08-11T00:16:53.009Z,101926.31
2022-08-11T00:20:12.648Z,101929.00
2022-08-11T00:22:23.596Z,101920.28
2022-08-11T00:24:53.300Z,101909.19
2022-08-11T00:27:32.500Z,101911.00
2022-08-11T00:29:59.151Z,101915.50
2022-08-11T00:32:26.881Z,101911.09
2022-08-11T00:35:54.808Z,101911.19
2022-08-11T00:37:48.407Z,101912.38
2022-08-11T00:40:23.137Z,101909.00
2022-08-11T00:43:21.272Z,101903.88
2022-08-11T00:46:12.643Z,101901.25
2022-08-11T00:49:02.373Z,101897.84
2022-08-11T00:51:56.646Z,101899.59
2022-08-11T00:54:45.043Z,101898.88
2022-08-11T00:57:35.982Z,101899.03
2022-08-11T01:00:19.105Z,101896.63
2022-08-11T01:03:04.407Z,101894.03
2022-08-11T01:05:51.704Z,101894.09
2022-08-11T01:08:37.024Z,101892.41
2022-08-11T01:11:06.725Z,101884.34
2022-08-11T01:14:07.435Z,101886.03
2022-08-11T01:16:53.025Z,101887.75
2022-08-11T01:20:46.086Z,101889.66
2022-08-11T01:23:01.024Z,101881.50
2022-08-11T01:26:11.080Z,101878.91
2022-08-11T01:29:08.817Z,101881.50
2022-08-11T01:31:56.889Z,101877.19
2022-08-11T01:34:26.851Z,101881.84
2022-08-11T01:37:06.651Z,101881.91
2022-08-11T01:39:51.800Z,101890.06
2022-08-11T01:43:28.541Z,101889.41
2022-08-11T01:46:16.723Z,101887.91
2022-08-11T01:48:57.120Z,101890.84
2022-08-11T01:52:18.761Z,101887.38
2022-08-11T01:55:29.782Z,101892.91
2022-08-11T01:58:21.216Z,101892.97
2022-08-11T02:01:52.999Z,101892.28
2022-08-11T02:04:34.013Z,101889.84
2022-08-11T02:07:19.232Z,101893.38
2022-08-11T02:09:55.370Z,101889.13
2022-08-11T02:12:39.704Z,101894.56
2022-08-11T02:15:43.710Z,101898.31
2022-08-11T02:18:53.175Z,101897.41
2022-08-11T02:21:46.182Z,101898.44
2022-08-11T02:24:20.898Z,101891.47
2022-08-11T02:26:56.719Z,101905.00
2022-08-11T02:29:31.531Z,101902.31
2022-08-11T02:32:29.673Z,101912.03
2022-08-11T02:35:22.110Z,101910.06
2022-08-11T02:38:01.018Z,101903.66
2022-08-11T02:40:38.393Z,101899.06
2022-08-11T02:43:15.130Z,101897.97
2022-08-11T02:45:54.900Z,101901.28
2022-08-11T02:48:39.847Z,101901.28
2022-08-11T02:51:14.807Z,101897.66
2022-08-11T02:54:20.658Z,101894.81
2022-08-11T02:56:54.740Z,101889.44
2022-08-11T02:59:55.278Z,101891.16
2022-08-11T03:02:52.467Z,101888.47
2022-08-11T03:05:49.980Z,101888.63
2022-08-11T03:08:31.337Z,101886.91
2022-08-11T03:11:25.903Z,101898.44
2022-08-11T03:14:23.014Z,101896.78
2022-08-11T03:16:49.987Z,101893.38
2022-08-11T03:20:00.082Z,101897.09
2022-08-11T03:23:19.359Z,101894.34
2022-08-11T03:25:57.559Z,101885.31
2022-08-11T03:29:02.988Z,101892.59
2022-08-11T03:31:35.742Z,101892.59
2022-08-11T03:34:25.630Z,101892.59
2022-08-11T03:37:39.011Z,101887.16
2022-08-11T03:40:43.828Z,101887.00
2022-08-11T03:43:32.267Z,101879.81
2022-08-11T03:46:10.337Z,101870.00
2022-08-11T03:48:54.718Z,101867.31
2022-08-11T03:51:30.598Z,101860.19
2022-08-11T03:54:29.547Z,101863.84
2022-08-11T03:57:37.979Z,101862.88
2022-08-11T04:00:25.910Z,101867.31
2022-08-11T04:03:15.666Z,101864.53
2022-08-11T04:06:21.173Z,101865.41
2022-08-11T04:08:56.705Z,101866.22
2022-08-11T04:11:41.573Z,101865.25
2022-08-11T04:15:17.470Z,101861.59
2022-08-11T04:17:51.074Z,101871.50
2022-08-11T04:20:35.807Z,101872.44
2022-08-11T04:24:35.745Z,101868.91
2022-08-11T04:26:57.481Z,101873.41
2022-08-11T04:30:00.869Z,101868.97
2022-08-11T04:32:48.842Z,101865.50
2022-08-11T04:35:48.599Z,101865.41
2022-08-11T04:38:45.488Z,101867.13
2022-08-11T04:41:15.142Z,101878.69
2022-08-11T04:44:05.570Z,101865.09
2022-08-11T04:46:51.499Z,101864.06
2022-08-11T04:49:58.113Z,101861.28
2022-08-11T04:53:32.156Z,101855.66
2022-08-11T04:56:35.235Z,101857.16
2022-08-11T04:59:48.670Z,101852.50
2022-08-11T05:02:36.791Z,101853.34
2022-08-11T05:05:33.772Z,101850.66
2022-08-11T05:08:29.487Z,101853.28
2022-08-11T05:10:55.986Z,101856.69
2022-08-11T05:13:50.481Z,101844.84
2022-08-11T05:16:46.178Z,101846.50
2022-08-11T05:19:49.840Z,101854.31
2022-08-11T05:22:38.313Z,101860.38
2022-08-11T05:26:44.736Z,101861.94
2022-08-11T05:28:48.723Z,101868.91
2022-08-11T05:31:36.974Z,101869.63
2022-08-11T05:34:30.235Z,101860.59
2022-08-11T05:37:25.225Z,101867.63
2022-08-11T05:40:14.513Z,101861.44
2022-08-11T05:43:09.382Z,101860.44
2022-08-11T05:46:03.693Z,101856.50
2022-08-11T05:48:54.865Z,101857.03
2022-08-11T05:51:52.497Z,101855.84
2022-08-11T05:54:42.222Z,101860.88
2022-08-11T05:57:09.771Z,101859.75
2022-08-11T05:59:36.818Z,101849.69
2022-08-11T06:02:07.539Z,101853.94
2022-08-11T06:04:34.667Z,101857.25
2022-08-11T06:07:06.289Z,101861.50
2022-08-11T06:09:53.012Z,101868.16
2022-08-11T06:12:37.468Z,101866.19
2022-08-11T06:15:07.448Z,101863.25
2022-08-11T06:17:43.123Z,101866.69
2022-08-11T06:20:12.418Z,101856.63
2022-08-11T06:22:47.551Z,101851.06
2022-08-11T06:25:18.031Z,101852.53
2022-08-11T06:27:45.978Z,101841.59
2022-08-11T06:30:15.996Z,101837.69
2022-08-11T06:32:45.694Z,101851.72
2022-08-11T06:35:48.398Z,101839.06
2022-08-11T06:38:31.969Z,101840.88
2022-08-11T06:41:23.099Z,101832.81
2022-08-11T06:43:55.255Z,101830.78
2022-08-11T06:46:30.595Z,101826.78
2022-08-11T06:49:00.833Z,101838.31
2022-08-11T06:51:32.562Z,101852.47
2022-08-11T06:54:04.662Z,101845.06
2022-08-11T06:57:28.278Z,101838.56
2022-08-11T07:00:06.763Z,101835.47
2022-08-11T07:02:52.195Z,101835.47
2022-08-11T07:05:28.962Z,101833.56
2022-08-11T07:08:33.538Z,101823.34
2022-08-11T07:12:07.128Z,101830.19
2022-08-11T07:14:58.907Z,101825.50
2022-08-11T07:17:31.770Z,101824.25
2022-08-11T07:20:19.988Z,101826.50
2022-08-11T07:23:14.585Z,101831.03
2022-08-11T07:26:02.512Z,101829.31
2022-08-11T07:28:49.671Z,101829.41
2022-08-11T07:31:26.946Z,101833.81
2022-08-11T07:34:15.859Z,101845.53
2022-08-11T07:36:52.563Z,101842.34
2022-08-11T07:39:22.430Z,101839.94
2022-08-11T07:41:51.246Z,101843.56
2022-08-11T07:44:18.809Z,101837.56
2022-08-11T07:47:08.081Z,101829.72
2022-08-11T07:49:55.866Z,101844.31
2022-08-11T07:52:33.968Z,101838.41
2022-08-11T07:55:14.611Z,101847.09
2022-08-11T07:58:16.730Z,101850.53
2022-08-11T08:01:16.079Z,101849.22
2022-08-11T08:04:09.280Z,101849.00
2022-08-11T08:06:55.971Z,101856.25
2022-08-11T08:09:42.109Z,101849.22
2022-08-11T08:12:28.356Z,101855.59
2022-08-11T08:15:14.721Z,101851.81
2022-08-11T08:18:10.070Z,101847.94
2022-08-11T08:20:45.892Z,101843.94
2022-08-11T08:23:13.506Z,101850.09
2022-08-11T08:25:43.427Z,101847.19
2022-08-11T08:28:15.221Z,101848.69
2022-08-11T08:30:50.978Z,101839.72
2022-08-11T08:33:27.531Z,101854.88
2022-08-11T08:36:11.741Z,101847.41
2022-08-11T08:38:50.003Z,101850.97
2022-08-11T08:41:30.086Z,101844.50
2022-08-11T08:44:27.817Z,101843.19
2022-08-11T08:46:54.590Z,101842.53
2022-08-11T08:49:31.747Z,101836.69
2022-08-11T08:52:26.194Z,101825.44
2022-08-11T08:54:54.471Z,101828.38
2022-08-11T08:57:24.126Z,101824.88
2022-08-11T08:59:52.189Z,101831.34
2022-08-11T09:02:34.275Z,101829.06
2022-08-11T09:05:04.064Z,101831.19
2022-08-11T09:07:39.775Z,101828.03
2022-08-11T09:10:08.718Z,101832.13
2022-08-11T09:12:38.774Z,101835.00
2022-08-11T09:15:10.165Z,101829.13
2022-08-11T09:17:48.357Z,101822.19
2022-08-11T09:20:25.770Z,101821.50
2022-08-11T09:26:22.077Z,101827.00
2022-08-11T09:28:58.994Z,101823.47
2022-08-11T09:31:26.959Z,101828.41
2022-08-11T09:33:55.436Z,101824.50
2022-08-11T09:36:41.155Z,101824.00
2022-08-11T09:39:26.674Z,101833.16
2022-08-11T09:42:01.459Z,101824.22
2022-08-11T09:44:50.654Z,101829.00
2022-08-11T09:47:21.009Z,101830.38
2022-08-11T09:49:49.126Z,101832.72
2022-08-11T09:52:18.068Z,101832.34
2022-08-11T09:54:48.015Z,101833.63
2022-08-11T09:57:37.032Z,101841.13
2022-08-11T10:00:09.494Z,101826.19
2022-08-11T10:02:46.134Z,101826.44
2022-08-11T10:05:36.028Z,101827.53
2022-08-11T10:08:03.763Z,101822.38
2022-08-11T10:10:34.668Z,101815.56
2022-08-11T10:13:05.316Z,101826.53
2022-08-11T10:16:15.426Z,101827.41
2022-08-11T10:18:49.283Z,101817.34
2022-08-11T10:21:28.290Z,101822.72
2022-08-11T10:24:17.225Z,101819.25
2022-08-11T10:26:53.635Z,101817.13
2022-08-11T10:29:45.457Z,101820.22
2022-08-11T10:32:52.263Z,101813.28
2022-08-11T10:35:29.014Z,101817.19
2022-08-11T10:38:08.276Z,101817.41
2022-08-11T10:40:39.098Z,101822.78
2022-08-11T10:43:10.361Z,101817.66
2022-08-11T10:45:57.609Z,101819.13
2022-08-11T10:48:26.921Z,101826.50
2022-08-11T10:51:13.448Z,101819.53
2022-08-11T10:54:02.499Z,101809.34
2022-08-11T10:56:53.879Z,101809.25
2022-08-11T10:59:22.237Z,101812.16
2022-08-11T11:01:50.355Z,101817.78
2022-08-11T11:04:24.300Z,101819.69
2022-08-11T11:07:05.934Z,101813.69
2022-08-11T11:09:38.574Z,101806.97
2022-08-11T11:12:42.715Z,101806.44
2022-08-11T11:15:29.461Z,101805.16
2022-08-11T11:18:04.923Z,101799.44
2022-08-11T11:20:46.707Z,101804.19
2022-08-11T11:23:20.129Z,101800.78
2022-08-11T11:26:27.544Z,101807.25
2022-08-11T11:29:00.338Z,101812.44
2022-08-11T11:31:53.798Z,101810.75
2022-08-11T11:34:53.071Z,101802.31
2022-08-11T11:37:23.499Z,101805.44
2022-08-11T11:39:50.670Z,101812.91
2022-08-11T11:42:18.770Z,101803.31
2022-08-11T11:44:46.956Z,101797.72
2022-08-11T11:47:17.191Z,101797.03
2022-08-11T11:49:45.155Z,101799.06
2022-08-11T11:52:19.105Z,101796.44
2022-08-11T11:54:52.077Z,101789.97
2022-08-11T11:57:40.731Z,101795.28
2022-08-11T12:00:33.817Z,101792.41
2022-08-11T12:03:03.730Z,101791.66
2022-08-11T12:05:33.551Z,101793.06
2022-08-11T12:08:18.130Z,101792.94
2022-08-11T12:11:16.608Z,101788.06
2022-08-11T12:13:46.115Z,101794.66
2022-08-11T12:16:34.337Z,101787.88
2022-08-11T12:19:06.151Z,101782.84
2022-08-11T12:21:36.007Z,101795.19
2022-08-11T12:24:21.866Z,101795.47
2022-08-11T12:27:14.898Z,101780.53
2022-08-11T12:29:41.139Z,101786.16
2022-08-11T12:32:11.379Z,101785.72
2022-08-11T12:34:38.094Z,101795.63
2022-08-11T12:37:13.009Z,101787.25
2022-08-11T12:40:15.644Z,101786.19
2022-08-11T12:43:21.856Z,101787.72
2022-08-11T12:45:54.280Z,101780.06
2022-08-11T12:49:01.104Z,101788.66
2022-08-11T12:52:11.927Z,101795.44
2022-08-11T12:55:02.131Z,101794.72
2022-08-11T12:57:54.728Z,101794.97
2022-08-11T13:00:41.231Z,101792.34
2022-08-11T13:03:29.936Z,101782.75
2022-08-11T13:05:59.633Z,101791.72
2022-08-11T13:08:29.641Z,101788.69
2022-08-11T13:11:17.895Z,101780.34
2022-08-11T13:13:53.663Z,101785.50
2022-08-11T13:16:31.594Z,101785.75
2022-08-11T13:19:01.235Z,101782.84
2022-08-11T13:21:29.397Z,101773.09
2022-08-11T13:24:01.353Z,101780.59
2022-08-11T13:26:48.132Z,101771.38
2022-08-11T13:29:22.306Z,101770.88
2022-08-11T13:31:50.046Z,101763.72
2022-08-11T13:34:18.650Z,101772.19
2022-08-11T13:36:52.176Z,101768.97
2022-08-11T13:39:20.442Z,101771.25
2022-08-11T13:41:48.596Z,101768.41
2022-08-11T13:44:23.224Z,101771.75
2022-08-11T13:46:52.925Z,101778.63
2022-08-11T13:49:21.788Z,101779.47
2022-08-11T13:51:49.342Z,101774.84
2022-08-11T13:54:23.851Z,101770.72
2022-08-11T13:56:54.467Z,101770.72
2022-08-11T13:59:24.055Z,101773.88
2022-08-11T14:02:21.851Z,101767.75
2022-08-11T14:04:53.326Z,101766.16
2022-08-11T14:07:23.091Z,101759.06
2022-08-11T14:09:57.589Z,101766.81
2022-08-11T14:12:48.594Z,101759.44
2022-08-11T14:15:25.351Z,101758.09
2022-08-11T14:18:01.732Z,101755.44
2022-08-11T14:20:53.869Z,101761.06
2022-08-11T14:23:27.554Z,101759.75
2022-08-11T14:26:14.769Z,101755.13
2022-08-11T14:28:44.967Z,101758.06
2022-08-11T14:31:14.411Z,101756.44
2022-08-11T14:33:58.062Z,101750.31
2022-08-11T14:36:31.168Z,101752.38
2022-08-11T14:38:58.259Z,101756.47
2022-08-11T14:42:11.714Z,101757.66
2022-08-11T14:44:54.526Z,101755.25
2022-08-11T14:47:23.681Z,101762.09
2022-08-11T14:49:58.410Z,101764.00
2022-08-11T14:52:55.146Z,101762.50
2022-08-11T14:55:45.146Z,101755.69
2022-08-11T14:58:18.966Z,101760.84
2022-08-11T15:00:46.576Z,101758.91
2022-08-11T15:03:15.324Z,101763.47
2022-08-11T15:05:57.261Z,101769.25
2022-08-11T15:08:47.455Z,101764.41
2022-08-11T15:11:35.337Z,101762.84
2022-08-11T15:14:05.427Z,101751.22
2022-08-11T15:16:51.367Z,101759.16
2022-08-11T15:19:21.264Z,101758.41
2022-08-11T15:22:08.273Z,101766.28
2022-08-11T15:24:36.748Z,101765.16
2022-08-11T15:27:35.848Z,101763.16
2022-08-11T15:30:33.487Z,101767.69
2022-08-11T15:33:25.753Z,101763.88
2022-08-11T15:36:13.306Z,101775.44
2022-08-11T15:38:44.354Z,101752.41
2022-08-11T15:41:34.351Z,101756.38
2022-08-11T15:44:44.731Z,101765.72
2022-08-11T15:47:14.529Z,101768.56
2022-08-11T15:50:11.615Z,101765.44
2022-08-11T15:52:39.263Z,101761.06
2022-08-11T15:55:08.596Z,101763.88
2022-08-11T15:57:55.457Z,101764.34
2022-08-11T16:00:45.949Z,101758.16
2022-08-11T16:04:06.721Z,101762.06
2022-08-11T16:06:35.603Z,101765.91
2022-08-11T16:09:07.444Z,101763.78
2022-08-11T16:11:46.634Z,101770.41
2022-08-11T16:14:34.286Z,101760.91
2022-08-11T16:17:03.470Z,101753.44
2022-08-11T16:19:35.717Z,101754.06
2022-08-11T16:22:09.377Z,101755.97
2022-08-11T16:27:04.604Z,101762.47
2022-08-11T16:27:28.027Z,101755.66
2022-08-11T16:29:56.271Z,101764.56
2022-08-11T16:32:25.803Z,101767.06
2022-08-11T16:35:17.689Z,101757.97
2022-08-11T16:38:03.858Z,101758.31
2022-08-11T16:40:31.237Z,101757.81
2022-08-11T16:43:17.351Z,101760.72
2022-08-11T16:46:03.540Z,101764.31
2022-08-11T16:48:38.612Z,101759.16
2022-08-11T16:51:07.416Z,101756.41
2022-08-11T16:53:54.622Z,101759.63
2022-08-11T16:56:25.206Z,101755.16
2022-08-11T16:59:13.689Z,101752.41
2022-08-11T17:01:45.163Z,101750.72
2022-08-11T17:04:33.239Z,101749.91
2022-08-11T17:07:40.423Z,101747.19
2022-08-11T17:10:31.819Z,101742.84
2022-08-11T17:13:21.246Z,101735.72
2022-08-11T17:16:10.257Z,101738.53
2022-08-11T17:18:48.951Z,101742.66
2022-08-11T17:21:33.710Z,101741.50
2022-08-11T17:24:08.476Z,101749.34
2022-08-11T17:26:58.414Z,101759.53
2022-08-11T17:29:24.956Z,101762.28
2022-08-11T17:32:11.839Z,101759.03
2022-08-11T17:35:00.942Z,101761.88
2022-08-11T17:37:31.174Z,101762.50
2022-08-11T17:39:59.849Z,101754.03
2022-08-11T17:42:48.620Z,101767.13
2022-08-11T17:45:36.102Z,101764.88
2022-08-11T17:48:23.361Z,101769.47
2022-08-11T17:50:52.470Z,101760.00
2022-08-11T17:53:38.490Z,101772.50
2022-08-11T17:56:25.943Z,101769.75
2022-08-11T17:59:12.909Z,101768.34
2022-08-11T18:01:41.071Z,101773.50
2022-08-11T18:04:11.169Z,101767.00
2022-08-11T18:06:42.518Z,101781.16
2022-08-11T18:09:38.811Z,101773.34
2022-08-11T18:12:28.285Z,101775.59
2022-08-11T18:15:15.703Z,101779.44
2022-08-11T18:18:02.079Z,101780.16
2022-08-11T18:20:47.662Z,101782.16
2022-08-11T18:23:46.924Z,101776.31
2022-08-11T18:26:37.829Z,101784.81
2022-08-11T18:29:26.080Z,101778.84
2022-08-11T18:32:21.940Z,101783.56
2022-08-11T18:35:14.412Z,101780.63
2022-08-11T18:38:06.048Z,101787.25
2022-08-11T18:40:54.290Z,101790.72
2022-08-11T18:43:43.046Z,101787.38
2022-08-11T18:46:31.818Z,101792.41
2022-08-11T18:49:21.259Z,101792.34
2022-08-11T18:52:11.356Z,101791.84
2022-08-11T18:54:59.932Z,101800.25
2022-08-11T18:57:52.096Z,101801.69
2022-08-11T19:00:44.242Z,101805.72
2022-08-11T19:03:33.054Z,101802.22
2022-08-11T19:06:40.165Z,101805.00
2022-08-11T19:09:30.777Z,101807.78
2022-08-11T19:12:19.462Z,101799.94
2022-08-11T19:15:07.093Z,101809.25
2022-08-11T19:17:54.849Z,101813.38
2022-08-11T19:20:43.652Z,101813.81
2022-08-11T19:23:31.027Z,101825.69
2022-08-11T19:26:17.454Z,101819.28
2022-08-11T19:29:06.608Z,101820.78
2022-08-11T19:31:52.640Z,101829.53
2022-08-11T19:34:40.949Z,101829.50
2022-08-11T19:37:27.349Z,101824.94
2022-08-11T19:40:16.386Z,101826.56
2022-08-11T19:43:02.378Z,101819.78
2022-08-11T19:45:52.693Z,101824.47
2022-08-11T19:48:40.932Z,101821.41
2022-08-11T19:51:28.822Z,101827.53
2022-08-11T19:54:15.767Z,101823.78
2022-08-11T19:57:02.636Z,101825.13
2022-08-11T19:59:49.046Z,101828.06
2022-08-11T20:02:35.039Z,101830.28
2022-08-11T20:05:20.244Z,101839.91
2022-08-11T20:08:07.469Z,101828.66
2022-08-11T20:10:55.870Z,101840.59
2022-08-11T20:13:43.632Z,101836.25
2022-08-11T20:16:32.445Z,101839.56
2022-08-11T20:19:20.344Z,101838.44
2022-08-11T20:22:14.529Z,101837.41
2022-08-11T20:25:01.360Z,101851.41
2022-08-11T20:27:55.122Z,101841.03
2022-08-11T20:30:41.502Z,101846.16
2022-08-11T20:33:28.202Z,101847.59
2022-08-11T20:36:13.545Z,101852.59
2022-08-11T20:38:59.681Z,101841.59
2022-08-11T20:41:58.514Z,101844.09
2022-08-11T20:44:47.317Z,101846.38
2022-08-11T20:47:59.317Z,101857.66
2022-08-11T20:50:45.913Z,101851.94
2022-08-11T20:53:35.958Z,101851.63
2022-08-11T20:56:28.361Z,101859.28
2022-08-11T20:59:18.516Z,101861.34
2022-08-11T21:02:09.852Z,101851.63
2022-08-11T21:04:57.329Z,101861.59
2022-08-11T21:07:55.519Z,101860.81
2022-08-11T21:10:50.562Z,101871.72
2022-08-11T21:13:39.393Z,101870.88
2022-08-11T21:16:27.496Z,101878.25
2022-08-11T21:19:19.180Z,101879.31
2022-08-11T21:22:27.856Z,101872.28
2022-08-11T21:25:16.408Z,101883.44
2022-08-11T21:28:03.667Z,101878.34
2022-08-11T21:30:51.088Z,101877.78
2022-08-11T21:33:41.714Z,101880.84
2022-08-11T21:36:27.834Z,101866.00
2022-08-11T21:39:13.289Z,101873.78
2022-08-11T21:41:58.801Z,101871.50
2022-08-11T21:44:45.484Z,101874.63
2022-08-11T21:47:43.695Z,101866.16
2022-08-11T21:50:29.466Z,101876.50
2022-08-11T21:53:16.841Z,101877.03
2022-08-11T21:56:02.522Z,101868.25
2022-08-11T21:58:49.055Z,101869.31
2022-08-11T22:01:35.417Z,101867.94
2022-08-11T22:04:22.152Z,101862.53
2022-08-11T22:07:09.387Z,101869.66
2022-08-11T22:09:55.797Z,101880.66
2022-08-11T22:12:44.971Z,101860.97
2022-08-11T22:15:31.225Z,101871.78
2022-08-11T22:18:16.919Z,101872.97
2022-08-11T22:21:03.822Z,101875.84
2022-08-11T22:23:52.133Z,101870.66
2022-08-11T22:26:41.210Z,101879.00
2022-08-11T22:29:50.807Z,101883.63
2022-08-11T22:32:35.827Z,101888.25
2022-08-11T22:35:21.709Z,101895.22
2022-08-11T22:38:08.132Z,101885.25
2022-08-11T22:40:55.262Z,101899.50
2022-08-11T22:43:40.398Z,101899.69
2022-08-11T22:46:25.777Z,101893.94
2022-08-11T22:49:11.687Z,101897.09
2022-08-11T22:51:58.387Z,101890.91
2022-08-11T22:54:44.983Z,101886.91
2022-08-11T22:57:30.638Z,101883.81
2022-08-11T23:00:16.688Z,101886.72
2022-08-11T23:03:02.558Z,101882.88
2022-08-11T23:05:48.420Z,101888.84
2022-08-11T23:08:34.630Z,101883.22
2022-08-11T23:11:20.570Z,101882.06
2022-08-11T23:14:06.632Z,101884.28
2022-08-11T23:16:52.430Z,101877.53
2022-08-11T23:20:03.853Z,101885.25
2022-08-11T23:22:50.304Z,101885.63
2022-08-11T23:25:36.923Z,101878.31
2022-08-11T23:28:24.028Z,101877.91
2022-08-11T23:31:12.106Z,101878.22
2022-08-11T23:34:00.836Z,101884.97
2022-08-11T23:36:47.463Z,101887.84
2022-08-11T23:39:36.895Z,101887.16
2022-08-11T23:42:22.946Z,101890.16
2022-08-11T23:45:09.668Z,101882.06
2022-08-11T23:47:57.751Z,101890.03
2022-08-11T23:50:43.813Z,101884.75
2022-08-11T23:53:31.066Z,101878.16
2022-08-11T23:56:16.889Z,101867.06
2022-08-11T23:59:04.207Z,101863.75
